• Join FlightAware (Why Join?)
  • Login
  • US Flag 
02:26PM EDT


 

Airport Tracker/Info


-or-


 

Live Flight TrackerFlight Track Log ✈ N12UP ✈ 02-Jun-2013 ✈ KALB - KBTV

Flight Track Log - Related Links

Times and Time Zones

All times are in EDT time to prevent confusion due to time zone crossing. See the N12UP flight status page for this flight to view local times or setup timezone preferences in your user account.

Time Position Orientation Groundspeed Altitude Reporting Facility
EDT Latitude Longitude Course Direction KTS MPH feet Rate Location/Type
05:44PM 42.8239 -73.7933 14° North 161 185 2,600  Level Boston Center
05:45PM 42.8678 -73.7800 13° North 161 185 3,800 960 Climbing Boston Center
05:46PM 42.8950 -73.7636 24° Northeast 162 186 4,400 1,080 Climbing Boston Center
05:47PM 42.9431 -73.7475 14° North 172 198 5,800 1,200 Climbing Boston Center
05:48PM 42.9828 -73.7314 17° North 162 186 6,800 900 Climbing Boston Center
05:49PM 43.0378 -73.6874 14° North  Level FlightAware Approximate
05:49PM 43.0331 -73.7125 15° North 167 192 7,700  Level Boston Center
05:50PM 43.0728 -73.6964 17° North 167 192 8,300 540 Climbing Boston Center
05:51PM 43.1253 -73.6775 15° North 167 192 8,800 300 Climbing Boston Center
05:52PM 43.1692 -73.6614 15° North 167 192 9,000 60 Climbing Boston Center
05:53PM 43.2297 -73.6369 16° North 184 212 9,000  Level Boston Center
05:54PM 43.2842 -73.6150 16° North 207 238 9,000  Level Boston Center
05:55PM 43.3533 -73.5878 16° North 227 261 9,000  Level Boston Center
05:56PM 43.4222 -73.5692 11° North 246 283 9,000  Level Boston Center
05:57PM 43.5058 -73.5336 17° North 251 289 9,000  Level Boston Center
05:58PM 43.5750 -73.5033 18° North 251 289 9,000  Level Boston Center
05:59PM 43.6439 -73.4786 15° North 251 289 9,000  Level Boston Center
06:00PM 43.7067 -73.4539 16° North 251 289 9,000  Level Boston Center
06:01PM 43.7778 -73.4264 16° North 251 289 9,000 -120 Level Boston Center
06:02PM 43.8469 -73.3986 16° North 251 289 8,800 -360 Descending Boston Center
06:03PM 43.9264 -73.3711 14° North 261 300 8,300 -600 Descending Boston Center
06:04PM 43.9953 -73.3433 16° North 256 295 7,600 -840 Descending Boston Center
06:05PM 44.0683 -73.3128 17° North 263 303 6,700 -960 Descending Boston Center
06:06PM 44.1375 -73.2819 18° North 263 303 5,700 -900 Descending Boston Center
06:07PM 44.2022 -73.2567 16° North 257 296 4,900 -900 Descending Boston Center
06:08PM 44.2647 -73.2344 14° North 239 275 4,000 -900 Descending Boston Center
06:09PM 44.3275 -73.2178 11° North 234 269 3,200 -840 Descending Boston Center
06:10PM 44.3858 -73.2042 North 224 258 2,400 -660 Descending Boston Center
06:11PM 44.4422 -73.1989 North 212 244 1,900 -360 Descending Boston Center
06:12PM 44.4881 -73.1908 North 177 204 1,700 -600 Descending Boston Center
06:13PM 44.4842 -73.1558 99° East 87 100 700 -660 Descending Boston Center
06:14PM 44.4653 -73.1497 167° South 40 46 400 -300 Descending Boston Center
06:16PM 44.4667 -73.1500 10° North  Level FlightAware Approximate
06:23PM 44.4719 -73.1533 10° North  Level Estimated